Time;durP1;ratioP1;P1;durP2;ratioP2;P2;SDS_P1;SDS_P2;PMS_P1;PMS_P2;Temp;Humidity;BMP_temperature;BMP_pressure;BME280_temperature;BME280_humidity;BME280_pressure;Samples;Min_cycle;Max_cycle;Signal;HPM_P1;HPM_P2
2023/07/24 00:01:12;;;;;;;9.97;8.50;;;19.90;99.90;;;;;;5034814;28;20227;-75
2023/07/24 00:03:40;;;;;;;9.67;8.67;;;19.90;99.90;;;;;;5034949;28;20219;-75
2023/07/24 00:06:07;;;;;;;10.63;9.07;;;19.90;99.90;;;;;;5041369;28;20192;-74
2023/07/24 00:08:34;;;;;;;10.27;7.00;;;19.80;99.90;;;;;;5037387;28;20206;-75
2023/07/24 00:11:02;;;;;;;8.60;6.60;;;19.80;99.90;;;;;;5033055;28;20196;-75
2023/07/24 00:13:29;;;;;;;10.33;7.20;;;19.70;99.90;;;;;;5041798;28;20714;-75
2023/07/24 00:15:56;;;;;;;10.30;7.23;;;19.70;99.90;;;;;;5037656;28;20214;-75
2023/07/24 00:18:23;;;;;;;10.13;8.90;;;19.60;99.90;;;;;;5033622;28;20265;-75
2023/07/24 00:20:51;;;;;;;10.07;7.10;;;19.60;99.90;;;;;;5032658;28;20215;-75
2023/07/24 00:23:18;;;;;;;10.30;7.93;;;19.50;99.90;;;;;;5033234;28;20223;-75
2023/07/24 00:25:44;;;;;;;10.60;7.87;;;19.40;99.90;;;;;;5038862;28;20246;-75
2023/07/24 00:28:11;;;;;;;11.10;7.87;;;19.30;99.90;;;;;;5033582;28;20207;-75
2023/07/24 00:30:39;;;;;;;10.47;7.50;;;19.20;99.90;;;;;;5037961;28;20195;-75
2023/07/24 00:33:05;;;;;;;9.37;6.80;;;19.10;99.90;;;;;;5032572;28;20206;-75
2023/07/24 00:35:32;;;;;;;10.37;7.23;;;19.00;99.90;;;;;;5032529;28;20202;-75
2023/07/24 00:38:00;;;;;;;9.37;7.33;;;19.00;99.90;;;;;;5048255;28;20205;-75
2023/07/24 00:40:27;;;;;;;9.57;6.90;;;19.00;99.90;;;;;;5043822;28;20248;-74
2023/07/24 00:42:54;;;;;;;10.57;7.20;;;18.90;99.90;;;;;;5032229;28;20735;-75
2023/07/24 00:45:22;;;;;;;10.37;6.50;;;18.90;99.90;;;;;;5032152;28;20223;-75
2023/07/24 00:47:49;;;;;;;9.07;6.60;;;18.90;99.90;;;;;;5035990;28;20549;-75
2023/07/24 00:50:16;;;;;;;11.33;7.70;;;18.80;99.90;;;;;;5032075;28;20672;-74
2023/07/24 00:52:44;;;;;;;11.07;9.43;;;18.80;99.90;;;;;;5032175;28;20295;-75
2023/07/24 00:55:16;;;;;;;9.77;7.40;;;18.80;99.90;;;;;;5033282;28;20276;-75
2023/07/24 00:57:44;;;;;;;9.83;7.10;;;18.90;99.90;;;;;;5032151;28;20681;-75
2023/07/24 01:00:12;;;;;;;9.60;6.93;;;18.90;99.90;;;;;;5031735;28;20197;-75
2023/07/24 01:02:39;;;;;;;10.63;7.43;;;18.90;99.90;;;;;;5032119;28;20668;-74
2023/07/24 01:05:07;;;;;;;8.63;5.97;;;18.80;99.90;;;;;;5040218;28;20225;-75
2023/07/24 01:07:33;;;;;;;9.93;7.13;;;18.80;99.90;;;;;;5031957;28;20241;-75
2023/07/24 01:10:01;;;;;;;10.93;9.43;;;18.70;99.90;;;;;;5032115;28;20233;-75
2023/07/24 01:12:36;;;;;;;10.77;9.20;;;18.70;99.90;;;;;;5031911;28;20198;-75
2023/07/24 01:15:11;;;;;;;10.67;8.83;;;18.70;99.90;;;;;;5036885;28;20228;-75
2023/07/24 01:17:44;;;;;;;10.13;8.23;;;18.60;99.90;;;;;;5033402;28;20704;-75
2023/07/24 01:20:14;;;;;;;10.20;7.43;;;18.60;99.90;;;;;;5032909;28;20193;-75
2023/07/24 01:22:49;;;;;;;11.07;7.43;;;18.60;99.90;;;;;;5032944;28;20190;-74
2023/07/24 01:25:23;;;;;;;11.23;9.17;;;18.50;99.90;;;;;;5031739;28;20214;-75
2023/07/24 01:27:52;;;;;;;9.17;7.77;;;18.50;99.90;;;;;;5031798;28;20204;-75
2023/07/24 01:30:21;;;;;;;10.37;8.37;;;18.50;99.90;;;;;;5032018;28;20221;-75
2023/07/24 01:32:48;;;;;;;11.77;9.10;;;18.50;99.90;;;;;;5039658;28;20201;-75
2023/07/24 01:35:17;;;;;;;9.47;7.20;;;18.40;99.90;;;;;;5030295;28;20228;-75
2023/07/24 01:37:45;;;;;;;9.63;6.87;;;18.40;99.90;;;;;;5031240;28;20201;-75
2023/07/24 01:40:13;;;;;;;9.20;6.40;;;18.40;99.90;;;;;;5031128;28;20217;-75
2023/07/24 01:42:41;;;;;;;9.80;6.97;;;18.30;99.90;;;;;;5035910;28;20205;-75
2023/07/24 01:45:11;;;;;;;9.13;6.90;;;18.30;99.90;;;;;;5031627;28;20274;-75
2023/07/24 01:47:38;;;;;;;10.17;7.10;;;18.40;99.90;;;;;;5036036;28;20198;-75
2023/07/24 01:50:05;;;;;;;11.97;7.30;;;18.40;99.90;;;;;;5034988;28;20249;-75
2023/07/24 01:52:32;;;;;;;9.30;7.13;;;18.40;99.90;;;;;;5032732;28;20542;-75
2023/07/24 01:54:59;;;;;;;10.47;6.80;;;18.40;99.90;;;;;;5030985;28;20212;-75
2023/07/24 01:57:26;;;;;;;8.07;6.03;;;18.40;99.90;;;;;;5031134;28;20235;-75
2023/07/24 01:59:53;;;;;;;9.43;6.77;;;18.40;99.90;;;;;;5030707;28;20211;-75
2023/07/24 02:02:21;;;;;;;10.70;7.13;;;18.40;99.90;;;;;;5031296;28;20197;-75
2023/07/24 02:04:47;;;;;;;8.47;6.50;;;18.40;99.90;;;;;;5042138;28;20286;-75
2023/07/24 02:07:14;;;;;;;11.07;7.50;;;18.40;99.90;;;;;;5043361;28;20209;-75
2023/07/24 02:09:41;;;;;;;9.23;7.03;;;18.40;99.90;;;;;;5038789;28;20198;-75
2023/07/24 02:12:08;;;;;;;9.10;6.67;;;18.30;99.90;;;;;;5035427;28;20229;-75
2023/07/24 02:14:35;;;;;;;10.73;6.93;;;18.20;99.90;;;;;;5037920;28;20228;-75
2023/07/24 02:17:02;;;;;;;10.97;8.93;;;18.20;99.90;;;;;;5031474;28;20215;-75
2023/07/24 02:19:30;;;;;;;11.67;9.87;;;18.10;99.90;;;;;;5030628;28;20307;-75
2023/07/24 02:21:57;;;;;;;11.80;10.53;;;18.00;99.90;;;;;;5030703;28;20207;-74
2023/07/24 02:24:23;;;;;;;9.33;7.03;;;18.00;99.90;;;;;;5030456;28;20224;-75
2023/07/24 02:26:50;;;;;;;10.77;8.03;;;17.90;99.90;;;;;;5031940;28;20197;-75
2023/07/24 02:29:17;;;;;;;11.13;8.17;;;17.90;99.90;;;;;;5031248;28;20242;-75
2023/07/24 02:31:44;;;;;;;9.23;7.50;;;17.80;99.90;;;;;;5031869;28;20266;-75
2023/07/24 02:34:11;;;;;;;9.70;6.97;;;17.70;99.90;;;;;;5040530;28;20716;-75
2023/07/24 02:36:41;;;;;;;10.20;7.40;;;17.70;99.90;;;;;;5035012;28;20200;-74
2023/07/24 02:39:09;;;;;;;11.63;9.47;;;17.70;99.90;;;;;;5031655;28;20208;-75
2023/07/24 02:41:36;;;;;;;10.83;8.93;;;17.70;99.90;;;;;;5031894;28;20196;-78
2023/07/24 02:44:03;;;;;;;9.37;6.70;;;17.60;99.90;;;;;;5031761;28;20231;-75
2023/07/24 02:46:30;;;;;;;12.17;8.77;;;17.50;99.90;;;;;;5030675;28;20226;-74
2023/07/24 02:48:58;;;;;;;10.53;7.33;;;17.50;99.90;;;;;;5045475;28;20207;-75
2023/07/24 02:51:25;;;;;;;11.17;7.37;;;17.50;99.90;;;;;;5036667;28;20196;-78
2023/07/24 02:53:55;;;;;;;13.00;11.00;;;17.40;99.90;;;;;;5050233;28;20219;-77
2023/07/24 02:56:22;;;;;;;12.47;8.93;;;17.40;99.90;;;;;;5036701;28;20199;-78
2023/07/24 02:58:50;;;;;;;10.20;6.90;;;17.30;99.90;;;;;;5040724;28;20729;-77
2023/07/24 03:01:16;;;;;;;9.63;7.93;;;17.30;99.90;;;;;;5044635;28;20199;-77
2023/07/24 03:03:44;;;;;;;10.70;7.67;;;17.20;99.90;;;;;;5045020;28;20258;-77
2023/07/24 03:06:10;;;;;;;10.60;9.33;;;17.20;99.90;;;;;;5035391;28;20195;-78
2023/07/24 03:08:37;;;;;;;10.50;9.27;;;17.10;99.90;;;;;;5048893;28;20203;-77
2023/07/24 03:11:07;;;;;;;10.53;7.40;;;17.00;99.90;;;;;;5041494;28;20218;-80
2023/07/24 03:13:34;;;;;;;9.70;6.83;;;17.00;99.90;;;;;;5042799;28;20230;-79
2023/07/24 03:16:00;;;;;;;11.03;7.50;;;16.90;99.90;;;;;;5036820;28;20196;-77
2023/07/24 03:18:27;;;;;;;12.37;10.13;;;16.90;99.90;;;;;;5033748;28;20685;-77
2023/07/24 03:20:54;;;;;;;11.77;9.30;;;16.80;99.90;;;;;;5031800;28;20213;-76
2023/07/24 03:23:21;;;;;;;9.97;7.43;;;16.80;99.90;;;;;;5032137;28;20192;-77
2023/07/24 03:25:48;;;;;;;10.80;9.40;;;16.80;99.90;;;;;;5032582;28;20265;-77
2023/07/24 03:28:16;;;;;;;11.67;7.60;;;16.80;99.90;;;;;;5036270;28;20552;-74
2023/07/24 03:30:43;;;;;;;8.87;6.97;;;16.80;99.90;;;;;;5042855;28;20603;-75
2023/07/24 03:33:12;;;;;;;11.50;7.33;;;16.70;99.90;;;;;;5039149;28;20203;-75
2023/07/24 03:35:39;;;;;;;10.03;7.53;;;16.70;99.90;;;;;;5039504;28;20611;-75
2023/07/24 03:38:05;;;;;;;9.63;7.70;;;16.70;99.90;;;;;;5031545;28;20674;-75
2023/07/24 03:40:32;;;;;;;10.80;7.50;;;16.70;99.90;;;;;;5030223;28;20196;-75
2023/07/24 03:42:59;;;;;;;10.93;7.67;;;16.60;99.90;;;;;;5032874;28;20200;-74
2023/07/24 03:45:27;;;;;;;9.10;6.80;;;16.60;99.90;;;;;;5037898;28;20236;-75
2023/07/24 03:47:54;;;;;;;9.70;7.03;;;16.60;99.90;;;;;;5030889;28;20203;-75
2023/07/24 03:50:21;;;;;;;9.87;7.43;;;16.60;99.90;;;;;;5029420;28;20223;-75
2023/07/24 03:52:47;;;;;;;11.33;7.40;;;16.60;99.90;;;;;;5030752;28;20196;-75
2023/07/24 03:55:14;;;;;;;9.77;6.97;;;16.60;99.90;;;;;;5031942;28;20220;-75
2023/07/24 03:57:41;;;;;;;8.63;6.53;;;16.60;99.90;;;;;;5037194;28;20200;-75
2023/07/24 04:00:09;;;;;;;9.23;6.63;;;16.70;99.90;;;;;;5042564;28;20205;-75
2023/07/24 04:02:40;;;;;;;10.13;7.23;;;16.90;99.90;;;;;;5047785;28;20206;-75
2023/07/24 04:05:07;;;;;;;11.30;7.70;;;16.90;99.90;;;;;;5034737;28;20219;-76
2023/07/24 04:07:34;;;;;;;10.30;7.30;;;17.00;99.90;;;;;;5033420;28;20204;-75
2023/07/24 04:10:01;;;;;;;8.77;6.77;;;17.00;99.90;;;;;;5040098;28;20227;-75
2023/07/24 04:12:29;;;;;;;9.67;6.50;;;17.10;99.90;;;;;;5032829;28;20200;-75
2023/07/24 04:14:56;;;;;;;10.80;9.43;;;17.10;99.90;;;;;;5037654;28;20235;-75
2023/07/24 04:17:23;;;;;;;9.47;6.30;;;17.20;99.90;;;;;;5033694;28;20646;-76
2023/07/24 04:19:51;;;;;;;9.20;7.43;;;17.20;99.90;;;;;;5033737;28;20199;-76
2023/07/24 04:22:18;;;;;;;8.80;6.70;;;17.30;99.90;;;;;;5039786;28;20670;-76
2023/07/24 04:24:45;;;;;;;8.40;6.63;;;17.40;99.90;;;;;;5033937;28;20217;-76
2023/07/24 04:27:11;;;;;;;9.30;7.20;;;17.50;99.90;;;;;;5047065;28;20223;-75
2023/07/24 04:29:38;;;;;;;10.17;8.67;;;17.50;99.90;;;;;;5039237;28;20664;-75
2023/07/24 04:32:05;;;;;;;10.23;9.13;;;17.60;99.90;;;;;;5037107;28;20254;-75
2023/07/24 04:34:33;;;;;;;11.43;8.93;;;17.80;99.90;;;;;;5036495;28;20227;-75
2023/07/24 04:37:01;;;;;;;10.33;8.83;;;17.90;99.90;;;;;;5033595;28;20203;-76
2023/07/24 04:39:28;;;;;;;10.00;8.67;;;17.90;99.90;;;;;;5041273;28;20245;-76
2023/07/24 04:41:55;;;;;;;10.97;9.87;;;18.00;99.90;;;;;;5032749;28;20201;-76
2023/07/24 04:44:21;;;;;;;10.10;9.10;;;18.00;99.90;;;;;;5033326;28;20647;-75
2023/07/24 04:46:48;;;;;;;10.03;8.03;;;18.10;99.90;;;;;;5033555;28;20209;-75
2023/07/24 04:49:15;;;;;;;9.77;8.33;;;18.20;99.90;;;;;;5041486;28;20224;-75
2023/07/24 04:51:42;;;;;;;11.20;10.10;;;18.20;99.90;;;;;;5034337;28;20192;-75
2023/07/24 04:54:10;;;;;;;9.33;8.33;;;18.30;99.90;;;;;;5032033;28;20252;-75
2023/07/24 04:56:37;;;;;;;9.53;8.17;;;18.40;99.90;;;;;;5033602;28;20254;-75
2023/07/24 04:59:04;;;;;;;9.57;7.53;;;18.50;99.90;;;;;;5031129;28;20669;-75
2023/07/24 05:01:30;;;;;;;10.07;8.97;;;18.50;99.90;;;;;;5033588;28;20220;-75
2023/07/24 05:03:57;;;;;;;10.23;9.20;;;18.60;99.90;;;;;;5041172;28;20291;-75
2023/07/24 05:06:24;;;;;;;10.23;9.13;;;18.60;99.90;;;;;;5047861;28;20206;-75
2023/07/24 05:08:51;;;;;;;9.57;7.10;;;18.60;99.90;;;;;;5032536;28;20689;-75
2023/07/24 05:11:19;;;;;;;9.17;7.07;;;18.70;99.90;;;;;;5036538;28;20668;-75
2023/07/24 05:13:46;;;;;;;8.97;7.30;;;18.70;99.90;;;;;;5032671;28;20388;-75
2023/07/24 05:16:12;;;;;;;10.13;8.57;;;18.80;99.90;;;;;;5032489;28;20289;-75
2023/07/24 05:18:39;;;;;;;9.87;8.87;;;18.90;99.90;;;;;;5037247;28;20209;-75
2023/07/24 05:21:06;;;;;;;9.73;7.30;;;19.00;99.90;;;;;;5035854;28;20198;-75
2023/07/24 05:23:33;;;;;;;11.30;9.13;;;19.20;99.90;;;;;;5036705;28;20235;-75
2023/07/24 05:26:00;;;;;;;9.93;7.17;;;19.30;99.90;;;;;;5033286;28;20215;-76
2023/07/24 05:28:29;;;;;;;10.43;7.63;;;19.40;99.90;;;;;;5043168;28;20259;-75
2023/07/24 05:30:56;;;;;;;10.27;8.00;;;19.70;99.90;;;;;;5039860;28;20237;-75
2023/07/24 05:33:23;;;;;;;12.53;9.67;;;20.00;99.90;;;;;;5033517;28;20195;-75
2023/07/24 05:35:50;;;;;;;11.30;9.07;;;20.10;99.90;;;;;;5032104;28;20246;-75
2023/07/24 05:38:17;;;;;;;10.83;7.40;;;20.10;99.90;;;;;;5032121;28;20235;-75
2023/07/24 05:40:43;;;;;;;10.27;7.37;;;20.10;99.90;;;;;;5040603;28;20741;-75
2023/07/24 05:43:10;;;;;;;10.10;7.53;;;19.90;99.90;;;;;;5044360;28;20203;-75
2023/07/24 05:45:38;;;;;;;12.27;10.97;;;19.80;99.90;;;;;;5032183;28;20227;-75
2023/07/24 05:48:05;;;;;;;9.60;7.90;;;19.70;99.90;;;;;;5035844;28;20203;-75
2023/07/24 05:50:33;;;;;;;11.80;9.80;;;19.60;99.90;;;;;;5032367;28;20245;-75
2023/07/24 05:52:59;;;;;;;9.23;6.90;;;19.50;99.90;;;;;;5031281;28;20203;-75
2023/07/24 05:55:26;;;;;;;10.43;9.00;;;19.40;99.90;;;;;;5032293;28;20222;-75
2023/07/24 05:57:53;;;;;;;10.13;7.37;;;19.30;99.90;;;;;;5032470;28;20210;-75
2023/07/24 06:00:20;;;;;;;10.47;7.57;;;19.20;99.90;;;;;;5031720;28;20252;-75
2023/07/24 06:02:48;;;;;;;10.13;8.60;;;19.10;99.90;;;;;;5035015;28;20230;-75
2023/07/24 06:05:15;;;;;;;11.93;10.70;;;19.00;99.90;;;;;;5051529;28;20230;-75
2023/07/24 06:07:43;;;;;;;10.83;9.70;;;19.10;99.90;;;;;;5038251;28;20672;-75
2023/07/24 06:10:10;;;;;;;10.13;9.07;;;19.10;99.90;;;;;;5041283;28;20203;-75
2023/07/24 06:12:37;;;;;;;9.67;6.77;;;19.00;99.90;;;;;;5045571;28;20225;-77
2023/07/24 06:15:05;;;;;;;10.20;7.20;;;19.10;99.90;;;;;;5029946;28;20227;-76
2023/07/24 06:17:32;;;;;;;9.70;7.07;;;19.10;99.90;;;;;;5032045;28;20588;-77
2023/07/24 06:20:00;;;;;;;9.60;6.63;;;19.20;99.90;;;;;;5039699;28;20259;-77
2023/07/24 06:22:27;;;;;;;9.90;6.90;;;19.20;99.90;;;;;;5032140;28;20270;-77
2023/07/24 06:24:54;;;;;;;9.60;7.20;;;19.20;99.90;;;;;;5035087;28;20758;-77
2023/07/24 06:27:20;;;;;;;9.13;6.87;;;19.30;99.90;;;;;;5033079;28;20207;-76
2023/07/24 06:29:47;;;;;;;10.57;7.87;;;19.30;99.90;;;;;;5039905;28;20226;-77
2023/07/24 06:32:14;;;;;;;9.17;6.87;;;19.30;99.90;;;;;;5031574;28;20203;-77
2023/07/24 06:34:41;;;;;;;8.20;6.77;;;19.30;99.90;;;;;;5031235;28;20266;-76
2023/07/24 06:37:09;;;;;;;9.87;7.33;;;19.40;99.90;;;;;;5031568;28;20203;-77
2023/07/24 06:39:36;;;;;;;8.50;6.10;;;19.40;99.90;;;;;;5039381;28;20619;-77
2023/07/24 06:42:03;;;;;;;10.57;9.43;;;19.50;99.90;;;;;;5030207;28;20194;-77
2023/07/24 06:44:30;;;;;;;10.30;8.80;;;19.50;99.90;;;;;;5032587;28;20617;-77
2023/07/24 06:46:56;;;;;;;9.20;7.83;;;19.60;99.90;;;;;;5031411;28;20206;-77
2023/07/24 06:49:23;;;;;;;10.80;8.90;;;19.70;99.90;;;;;;5031604;28;20230;-77
2023/07/24 06:51:50;;;;;;;11.57;9.17;;;19.70;99.90;;;;;;5033289;28;20585;-77
2023/07/24 06:54:18;;;;;;;10.63;8.20;;;19.80;99.90;;;;;;5032790;28;20652;-77
2023/07/24 06:56:45;;;;;;;10.20;7.03;;;20.00;99.90;;;;;;5031148;28;20260;-77
2023/07/24 06:59:11;;;;;;;11.43;10.33;;;20.10;99.90;;;;;;5029604;28;20227;-77
2023/07/24 07:01:38;;;;;;;10.83;9.67;;;20.30;99.90;;;;;;5038179;28;20200;-76
2023/07/24 07:04:05;;;;;;;10.50;9.47;;;20.50;99.90;;;;;;5031097;28;20276;-77
2023/07/24 07:06:32;;;;;;;11.43;9.50;;;20.70;99.90;;;;;;5031105;28;20270;-77
2023/07/24 07:08:59;;;;;;;11.40;8.90;;;20.70;99.90;;;;;;5031033;28;20570;-77
2023/07/24 07:11:27;;;;;;;9.80;8.80;;;20.80;99.90;;;;;;5031065;28;20231;-77
2023/07/24 07:13:54;;;;;;;11.97;9.33;;;21.00;99.90;;;;;;5030663;28;20266;-77
2023/07/24 07:16:20;;;;;;;10.87;9.70;;;21.10;99.90;;;;;;5031806;28;20196;-77
2023/07/24 07:18:47;;;;;;;10.73;9.23;;;21.20;99.90;;;;;;5031129;28;20685;-77
2023/07/24 07:21:14;;;;;;;11.30;9.83;;;21.40;99.90;;;;;;5031217;28;20200;-77
2023/07/24 07:23:41;;;;;;;12.37;8.33;;;21.60;99.90;;;;;;5030650;28;20265;-77
2023/07/24 07:26:08;;;;;;;10.87;9.63;;;22.00;99.90;;;;;;5031438;28;20219;-76
2023/07/24 07:28:37;;;;;;;13.37;10.60;;;22.70;99.90;;;;;;5030923;28;20218;-76
2023/07/24 07:31:04;;;;;;;11.03;8.43;;;23.40;99.90;;;;;;5032566;28;20196;-77
2023/07/24 07:33:30;;;;;;;10.50;8.50;;;23.90;99.90;;;;;;5041070;28;20253;-78
2023/07/24 07:35:57;;;;;;;11.27;8.13;;;24.30;99.90;;;;;;5050037;28;20198;-78
2023/07/24 07:38:24;;;;;;;12.03;9.77;;;24.50;99.90;;;;;;5049681;28;20218;-77
2023/07/24 07:40:51;;;;;;;11.07;9.83;;;24.70;99.90;;;;;;5042138;28;20246;-77
2023/07/24 07:43:18;;;;;;;11.43;9.70;;;24.90;99.90;;;;;;5043946;28;20195;-75
2023/07/24 07:45:47;;;;;;;12.23;11.03;;;25.30;99.90;;;;;;5049986;28;20650;-77
2023/07/24 07:48:13;;;;;;;11.50;10.30;;;25.20;99.90;;;;;;5051558;28;20222;-77
2023/07/24 07:50:40;;;;;;;12.37;11.10;;;25.30;99.90;;;;;;5047617;28;20669;-78
2023/07/24 07:53:07;;;;;;;11.70;10.20;;;25.10;99.90;;;;;;5047345;28;20739;-77
2023/07/24 07:55:34;;;;;;;11.53;10.30;;;24.80;99.90;;;;;;5042091;28;20192;-77
2023/07/24 07:58:01;;;;;;;10.23;8.03;;;24.60;99.90;;;;;;5036580;28;20204;-77
2023/07/24 08:00:27;;;;;;;10.60;7.83;;;24.30;99.90;;;;;;5047184;28;20627;-75
2023/07/24 08:02:55;;;;;;;10.73;8.40;;;24.20;99.90;;;;;;5038692;28;20242;-75
2023/07/24 08:05:22;;;;;;;9.33;7.87;;;23.90;99.90;;;;;;5043916;28;20274;-76
2023/07/24 08:07:49;;;;;;;9.87;7.00;;;23.70;99.90;;;;;;5045304;28;20210;-76
2023/07/24 08:10:16;;;;;;;12.07;7.13;;;23.60;99.90;;;;;;5042659;28;20188;-76
2023/07/24 08:12:43;;;;;;;9.47;6.80;;;23.60;99.90;;;;;;5046316;28;20207;-76
2023/07/24 08:15:11;;;;;;;8.90;7.63;;;23.60;99.90;;;;;;5039694;28;20231;-77
2023/07/24 08:17:38;;;;;;;10.57;9.03;;;23.60;99.90;;;;;;5035261;28;20204;-77
2023/07/24 08:20:07;;;;;;;10.37;9.37;;;23.70;99.90;;;;;;5034288;28;20200;-76
2023/07/24 08:22:34;;;;;;;9.57;8.67;;;24.00;99.90;;;;;;5040354;28;20218;-80
2023/07/24 08:25:01;;;;;;;9.60;8.70;;;24.10;99.90;;;;;;5037416;28;20224;-78
2023/07/24 08:27:28;;;;;;;10.73;9.23;;;24.20;99.90;;;;;;5051050;28;20561;-79
2023/07/24 08:29:55;;;;;;;10.57;9.47;;;24.10;99.90;;;;;;5036980;28;20200;-76
2023/07/24 08:32:21;;;;;;;11.07;8.03;;;23.80;99.90;;;;;;5036657;28;20200;-81
2023/07/24 08:34:48;;;;;;;10.80;9.70;;;23.70;99.90;;;;;;5046406;28;20219;-78
2023/07/24 08:37:16;;;;;;;12.93;9.47;;;23.50;99.90;;;;;;5036791;28;20261;-77
2023/07/24 08:39:43;;;;;;;11.33;10.27;;;23.40;99.90;;;;;;5037498;28;20257;-79
2023/07/24 08:42:11;;;;;;;11.20;10.10;;;23.40;99.90;;;;;;5036523;28;20212;-77
2023/07/24 08:44:38;;;;;;;10.80;9.70;;;23.40;99.90;;;;;;5037735;28;20227;-78
2023/07/24 08:47:10;;;;;;;9.00;6.67;;;23.40;99.90;;;;;;5042471;28;20239;-78
2023/07/24 08:49:38;;;;;;;9.80;7.90;;;23.40;99.90;;;;;;5043736;28;20203;-80
2023/07/24 08:52:07;;;;;;;8.97;6.33;;;23.40;99.90;;;;;;5038488;28;20200;-78
2023/07/24 08:54:37;;;;;;;7.77;6.80;;;23.40;99.90;;;;;;5038401;28;20285;-79
2023/07/24 08:57:05;;;;;;;9.13;6.00;;;23.40;99.90;;;;;;5037579;28;20226;-78
2023/07/24 08:59:32;;;;;;;8.80;6.43;;;23.40;99.90;;;;;;5048730;28;20208;-80
2023/07/24 09:01:58;;;;;;;10.50;9.50;;;23.40;99.90;;;;;;5035883;28;20706;-79
2023/07/24 09:04:26;;;;;;;9.33;8.00;;;23.30;99.90;;;;;;5034606;28;20226;-79
2023/07/24 09:06:53;;;;;;;8.10;6.33;;;23.20;99.90;;;;;;5035511;28;20227;-79
2023/07/24 09:09:20;;;;;;;7.97;6.17;;;23.20;99.90;;;;;;5036412;28;20629;-78
2023/07/24 09:11:50;;;;;;;8.33;6.07;;;23.30;99.90;;;;;;5034834;28;20200;-78
2023/07/24 09:14:24;;;;;;;8.47;6.40;;;23.40;99.90;;;;;;5036257;28;20243;-79
2023/07/24 09:17:02;;;;;;;7.03;6.33;;;23.60;99.90;;;;;;5036227;28;20244;-78
2023/07/24 09:19:29;;;;;;;7.07;6.37;;;23.70;99.90;;;;;;5035702;28;20677;-78
2023/07/24 09:21:55;;;;;;;8.07;6.20;;;23.80;99.90;;;;;;5043863;28;20196;-78
2023/07/24 09:24:22;;;;;;;8.20;6.00;;;23.80;99.90;;;;;;5043626;28;20208;-78
2023/07/24 09:26:52;;;;;;;10.23;9.23;;;23.80;99.90;;;;;;5035982;28;20243;-79
2023/07/24 09:29:20;;;;;;;8.73;7.83;;;23.70;99.90;;;;;;5052895;28;20208;-81
2023/07/24 09:31:47;;;;;;;8.50;6.50;;;23.60;99.90;;;;;;5039311;28;20202;-77
2023/07/24 09:34:18;;;;;;;8.50;5.90;;;23.40;99.90;;;;;;5048896;28;20220;-77
2023/07/24 09:36:45;;;;;;;7.80;6.93;;;23.30;99.90;;;;;;5035700;28;20203;-77
2023/07/24 09:39:12;;;;;;;8.60;5.90;;;23.20;99.90;;;;;;5041181;28;20204;-77
2023/07/24 09:41:40;;;;;;;9.37;7.80;;;23.20;99.90;;;;;;5038097;28;20192;-78
2023/07/24 09:44:08;;;;;;;6.43;5.60;;;23.10;99.90;;;;;;5034497;28;20254;-77
2023/07/24 09:46:35;;;;;;;10.37;8.30;;;23.00;99.90;;;;;;5034974;28;20258;-78
2023/07/24 09:49:02;;;;;;;7.63;6.40;;;23.00;99.90;;;;;;5034154;28;20203;-77
2023/07/24 09:51:31;;;;;;;9.43;8.53;;;22.90;99.90;;;;;;5047548;28;20200;-77
2023/07/24 09:54:05;;;;;;;9.00;8.10;;;22.80;99.90;;;;;;5035270;28;20638;-77
2023/07/24 09:56:33;;;;;;;8.70;7.80;;;22.70;99.90;;;;;;5035516;28;20200;-78
2023/07/24 09:59:03;;;;;;;9.60;8.70;;;22.60;99.90;;;;;;5042923;28;20195;-77
2023/07/24 10:01:32;;;;;;;9.77;8.87;;;22.50;99.90;;;;;;5047032;28;20551;-81
2023/07/24 10:04:00;;;;;;;9.60;8.60;;;22.40;99.90;;;;;;5052942;28;20294;-82
2023/07/24 10:06:29;;;;;;;10.10;9.13;;;22.40;99.90;;;;;;5047232;28;20249;-77
2023/07/24 10:08:57;;;;;;;9.53;8.67;;;22.30;99.90;;;;;;5043003;28;20202;-78
2023/07/24 10:11:25;;;;;;;9.70;8.70;;;22.10;99.90;;;;;;5034444;28;20222;-78
2023/07/24 10:13:53;;;;;;;9.70;8.80;;;22.10;99.90;;;;;;5034256;28;20226;-79
2023/07/24 10:16:20;;;;;;;10.33;9.33;;;22.00;99.90;;;;;;5040020;28;20943;-76
2023/07/24 10:18:48;;;;;;;9.70;8.80;;;21.90;99.90;;;;;;5040404;28;20204;-75
2023/07/24 10:21:15;;;;;;;10.33;9.33;;;21.80;99.90;;;;;;5036061;28;20222;-75
2023/07/24 10:23:43;;;;;;;10.90;9.80;;;21.70;99.90;;;;;;5031665;28;20215;-74
2023/07/24 10:26:11;;;;;;;10.50;9.50;;;21.50;99.90;;;;;;5030827;28;20220;-76
2023/07/24 10:28:39;;;;;;;7.73;5.67;;;21.40;99.90;;;;;;5030856;28;20207;-77
2023/07/24 10:31:08;;;;;;;11.80;10.70;;;21.30;99.90;;;;;;5034693;28;20203;-77
2023/07/24 10:33:38;;;;;;;10.70;9.10;;;21.20;99.90;;;;;;5033808;28;20223;-74
2023/07/24 10:36:09;;;;;;;11.03;9.93;;;21.10;99.90;;;;;;5032186;28;20187;-75
2023/07/24 10:38:37;;;;;;;9.60;8.13;;;21.00;99.90;;;;;;5039875;28;20223;-74
2023/07/24 10:41:06;;;;;;;10.37;8.10;;;20.90;99.90;;;;;;5040164;28;20192;-75
2023/07/24 10:43:42;;;;;;;11.43;9.63;;;20.80;99.90;;;;;;5030732;28;20220;-74
2023/07/24 10:46:09;;;;;;;9.97;9.07;;;20.70;99.90;;;;;;5047553;28;20218;-77
2023/07/24 10:48:36;;;;;;;11.90;10.47;;;20.70;99.90;;;;;;5040431;28;20191;-77
2023/07/24 10:51:09;;;;;;;11.77;10.63;;;20.70;99.90;;;;;;5036522;28;20199;-76
2023/07/24 10:53:37;;;;;;;12.33;11.20;;;20.70;99.90;;;;;;5034010;28;20216;-75
2023/07/24 10:56:04;;;;;;;12.30;11.07;;;20.70;99.90;;;;;;5030136;28;20196;-76
2023/07/24 10:58:32;;;;;;;9.87;8.73;;;20.80;99.90;;;;;;5038383;28;20616;-75
2023/07/24 11:00:59;;;;;;;11.43;10.33;;;20.90;99.90;;;;;;5035348;28;20229;-81
2023/07/24 11:03:26;;;;;;;10.07;9.07;;;20.90;99.90;;;;;;5032828;28;20219;-75
2023/07/24 11:05:53;;;;;;;10.53;9.60;;;20.80;99.90;;;;;;5031493;28;20195;-75
2023/07/24 11:08:22;;;;;;;9.07;6.57;;;20.80;99.90;;;;;;5044578;28;20198;-75
2023/07/24 11:10:49;;;;;;;8.47;6.13;;;20.70;99.90;;;;;;5051317;28;20204;-75
2023/07/24 11:13:17;;;;;;;9.07;8.23;;;20.70;99.90;;;;;;5037328;28;20724;-75
2023/07/24 11:15:43;;;;;;;9.37;8.47;;;20.60;99.90;;;;;;5036475;28;20716;-75
2023/07/24 11:18:11;;;;;;;10.33;6.07;;;20.50;99.90;;;;;;5037569;28;20203;-75
2023/07/24 11:20:39;;;;;;;7.37;6.00;;;20.50;99.90;;;;;;5046096;28;20188;-76
2023/07/24 11:23:06;;;;;;;8.13;6.27;;;20.40;99.90;;;;;;5044386;28;20195;-75
2023/07/24 11:25:34;;;;;;;8.57;6.63;;;20.40;99.90;;;;;;5036378;28;20581;-75
2023/07/24 11:28:02;;;;;;;7.10;5.80;;;20.40;99.90;;;;;;5045500;28;20642;-75
2023/07/24 11:30:29;;;;;;;7.73;6.00;;;20.40;99.90;;;;;;5045216;28;20197;-75
2023/07/24 11:32:57;;;;;;;8.57;7.10;;;20.60;99.90;;;;;;5046923;28;20227;-75
2023/07/24 11:35:25;;;;;;;7.50;6.20;;;21.00;99.90;;;;;;5036608;28;20230;-75
2023/07/24 11:37:52;;;;;;;8.20;6.17;;;21.30;99.90;;;;;;5037483;28;20200;-75
2023/07/24 11:40:20;;;;;;;8.77;6.00;;;21.70;99.90;;;;;;5037181;28;20200;-76
2023/07/24 11:42:49;;;;;;;9.53;6.57;;;22.20;99.90;;;;;;5036027;28;20666;-76
2023/07/24 11:45:16;;;;;;;8.70;6.70;;;22.30;99.90;;;;;;5036134;28;20247;-76
2023/07/24 11:47:47;;;;;;;9.03;6.63;;;22.80;99.90;;;;;;5037339;28;20220;-76
2023/07/24 11:50:14;;;;;;;9.33;6.53;;;23.00;99.90;;;;;;5037368;28;20207;-76
2023/07/24 11:52:43;;;;;;;9.20;8.30;;;23.10;99.90;;;;;;5037032;28;20195;-76
2023/07/24 11:55:10;;;;;;;7.17;5.67;;;23.10;99.90;;;;;;5037494;28;20748;-76
2023/07/24 11:57:37;;;;;;;9.60;8.57;;;23.10;99.90;;;;;;5037365;28;20242;-75
2023/07/24 12:00:17;;;;;;;6.57;5.70;;;23.00;99.90;;;;;;5047182;28;20194;-79
2023/07/24 12:02:44;;;;;;;9.63;7.77;;;23.10;99.90;;;;;;5050155;28;20257;-79
2023/07/24 12:05:11;;;;;;;6.80;5.93;;;23.40;99.90;;;;;;5049198;28;20273;-77
2023/07/24 12:07:38;;;;;;;7.10;6.40;;;23.70;99.90;;;;;;5040398;28;20247;-78
2023/07/24 12:10:08;;;;;;;9.10;6.33;;;23.90;99.90;;;;;;5052584;28;20256;-78
2023/07/24 12:12:39;;;;;;;7.00;6.13;;;24.20;99.90;;;;;;5058617;28;20242;-79
2023/07/24 12:15:08;;;;;;;8.67;7.57;;;24.30;99.90;;;;;;5045284;28;20227;-79
2023/07/24 12:17:36;;;;;;;6.33;5.73;;;24.60;99.90;;;;;;5044964;28;20195;-79
2023/07/24 12:20:04;;;;;;;10.30;9.40;;;24.90;99.90;;;;;;5036929;28;20204;-79
2023/07/24 12:22:31;;;;;;;7.37;6.77;;;25.10;99.90;;;;;;5039578;28;20200;-79
2023/07/24 12:24:58;;;;;;;5.87;4.97;;;25.20;99.90;;;;;;5046001;28;20597;-80
2023/07/24 12:27:25;;;;;;;7.17;5.17;;;25.20;99.90;;;;;;5045671;28;20207;-78
2023/07/24 12:29:52;;;;;;;5.93;4.90;;;25.10;99.90;;;;;;5047240;28;20192;-80
2023/07/24 12:32:22;;;;;;;7.27;6.47;;;25.10;99.90;;;;;;5049285;28;20199;-79
2023/07/24 12:34:50;;;;;;;7.33;6.23;;;25.10;99.90;;;;;;5048947;28;20265;-80
2023/07/24 12:37:19;;;;;;;4.80;4.10;;;25.20;99.90;;;;;;5042368;28;20264;-80
2023/07/24 12:39:46;;;;;;;5.77;4.57;;;25.30;99.90;;;;;;5050579;28;20669;-79
2023/07/24 12:42:13;;;;;;;6.00;4.70;;;25.40;99.90;;;;;;5047318;28;20204;-78